sensor_id;sensor_type;location;lat;lon;timestamp;P1;durP1;ratioP1;P2;durP2;ratioP2
81483;SDS011;70895;52.392;5.268;2023-06-22T00:01:15;14.45;;;6.93;;
81483;SDS011;70895;52.392;5.268;2023-06-22T00:03:42;11.50;;;6.30;;
81483;SDS011;70895;52.392;5.268;2023-06-22T00:06:09;11.88;;;6.22;;
81483;SDS011;70895;52.392;5.268;2023-06-22T00:08:36;11.48;;;6.20;;
81483;SDS011;70895;52.392;5.268;2023-06-22T00:11:04;15.15;;;6.88;;
81483;SDS011;70895;52.392;5.268;2023-06-22T00:13:30;11.15;;;7.18;;
81483;SDS011;70895;52.392;5.268;2023-06-22T00:15:57;14.45;;;7.32;;
81483;SDS011;70895;52.392;5.268;2023-06-22T00:18:24;12.10;;;6.88;;
81483;SDS011;70895;52.392;5.268;2023-06-22T00:20:53;10.98;;;7.18;;
81483;SDS011;70895;52.392;5.268;2023-06-22T00:23:23;13.73;;;8.18;;
81483;SDS011;70895;52.392;5.268;2023-06-22T00:25:50;15.65;;;9.23;;
81483;SDS011;70895;52.392;5.268;2023-06-22T00:28:18;13.70;;;8.80;;
81483;SDS011;70895;52.392;5.268;2023-06-22T00:30:45;17.65;;;9.38;;
81483;SDS011;70895;52.392;5.268;2023-06-22T00:33:12;17.48;;;9.88;;
81483;SDS011;70895;52.392;5.268;2023-06-22T00:35:41;19.27;;;10.73;;
81483;SDS011;70895;52.392;5.268;2023-06-22T00:38:08;20.85;;;11.52;;
81483;SDS011;70895;52.392;5.268;2023-06-22T00:40:34;17.92;;;10.65;;
81483;SDS011;70895;52.392;5.268;2023-06-22T00:43:01;18.98;;;10.90;;
81483;SDS011;70895;52.392;5.268;2023-06-22T00:45:31;22.30;;;12.25;;
81483;SDS011;70895;52.392;5.268;2023-06-22T00:47:57;20.08;;;12.15;;
81483;SDS011;70895;52.392;5.268;2023-06-22T00:50:26;20.75;;;12.73;;
81483;SDS011;70895;52.392;5.268;2023-06-22T00:52:53;24.17;;;14.07;;
81483;SDS011;70895;52.392;5.268;2023-06-22T00:55:23;24.13;;;12.85;;
81483;SDS011;70895;52.392;5.268;2023-06-22T00:57:51;22.55;;;13.40;;
81483;SDS011;70895;52.392;5.268;2023-06-22T01:00:21;23.38;;;12.35;;
81483;SDS011;70895;52.392;5.268;2023-06-22T01:02:51;24.83;;;12.45;;
81483;SDS011;70895;52.392;5.268;2023-06-22T01:05:19;23.40;;;13.48;;
81483;SDS011;70895;52.392;5.268;2023-06-22T01:07:51;25.60;;;12.93;;
81483;SDS011;70895;52.392;5.268;2023-06-22T01:10:29;28.65;;;15.70;;
81483;SDS011;70895;52.392;5.268;2023-06-22T01:13:02;34.88;;;17.05;;
81483;SDS011;70895;52.392;5.268;2023-06-22T01:15:35;38.25;;;18.63;;
81483;SDS011;70895;52.392;5.268;2023-06-22T01:18:07;30.42;;;15.82;;
81483;SDS011;70895;52.392;5.268;2023-06-22T01:20:35;30.60;;;16.35;;
81483;SDS011;70895;52.392;5.268;2023-06-22T01:23:07;38.08;;;18.92;;
81483;SDS011;70895;52.392;5.268;2023-06-22T01:25:40;32.83;;;17.17;;
81483;SDS011;70895;52.392;5.268;2023-06-22T01:28:17;37.50;;;18.80;;
81483;SDS011;70895;52.392;5.268;2023-06-22T01:30:52;29.30;;;17.73;;
81483;SDS011;70895;52.392;5.268;2023-06-22T01:33:31;38.75;;;18.45;;
81483;SDS011;70895;52.392;5.268;2023-06-22T01:36:00;36.15;;;18.10;;
81483;SDS011;70895;52.392;5.268;2023-06-22T01:38:28;37.47;;;20.70;;
81483;SDS011;70895;52.392;5.268;2023-06-22T01:40:56;33.63;;;18.80;;
81483;SDS011;70895;52.392;5.268;2023-06-22T01:43:24;34.55;;;18.17;;
81483;SDS011;70895;52.392;5.268;2023-06-22T01:45:54;37.10;;;19.30;;
81483;SDS011;70895;52.392;5.268;2023-06-22T01:48:22;35.78;;;19.45;;
81483;SDS011;70895;52.392;5.268;2023-06-22T01:50:51;40.17;;;22.10;;
81483;SDS011;70895;52.392;5.268;2023-06-22T01:53:20;42.42;;;21.92;;
81483;SDS011;70895;52.392;5.268;2023-06-22T01:55:47;35.75;;;21.75;;
81483;SDS011;70895;52.392;5.268;2023-06-22T01:58:14;37.60;;;20.63;;
81483;SDS011;70895;52.392;5.268;2023-06-22T02:00:43;42.22;;;20.02;;
81483;SDS011;70895;52.392;5.268;2023-06-22T02:03:17;40.30;;;20.33;;
81483;SDS011;70895;52.392;5.268;2023-06-22T02:05:47;46.70;;;24.52;;
81483;SDS011;70895;52.392;5.268;2023-06-22T02:08:17;43.33;;;22.48;;
81483;SDS011;70895;52.392;5.268;2023-06-22T02:10:47;53.88;;;26.35;;
81483;SDS011;70895;52.392;5.268;2023-06-22T02:13:15;48.13;;;24.80;;
81483;SDS011;70895;52.392;5.268;2023-06-22T02:15:43;48.90;;;25.40;;
81483;SDS011;70895;52.392;5.268;2023-06-22T02:18:10;46.25;;;23.00;;
81483;SDS011;70895;52.392;5.268;2023-06-22T02:20:38;46.33;;;23.30;;
81483;SDS011;70895;52.392;5.268;2023-06-22T02:25:33;51.15;;;24.55;;
81483;SDS011;70895;52.392;5.268;2023-06-22T02:28:01;49.63;;;24.23;;
81483;SDS011;70895;52.392;5.268;2023-06-22T02:30:28;55.95;;;26.00;;
81483;SDS011;70895;52.392;5.268;2023-06-22T02:32:55;50.38;;;24.02;;
81483;SDS011;70895;52.392;5.268;2023-06-22T02:35:25;54.53;;;25.63;;
81483;SDS011;70895;52.392;5.268;2023-06-22T02:37:53;45.88;;;24.13;;
81483;SDS011;70895;52.392;5.268;2023-06-22T02:40:20;56.60;;;28.50;;
81483;SDS011;70895;52.392;5.268;2023-06-22T02:42:47;69.68;;;29.17;;
81483;SDS011;70895;52.392;5.268;2023-06-22T02:45:14;53.50;;;27.13;;
81483;SDS011;70895;52.392;5.268;2023-06-22T02:47:40;47.75;;;25.48;;
81483;SDS011;70895;52.392;5.268;2023-06-22T02:50:07;56.90;;;28.15;;
81483;SDS011;70895;52.392;5.268;2023-06-22T02:52:35;54.28;;;27.25;;
81483;SDS011;70895;52.392;5.268;2023-06-22T02:55:03;54.10;;;28.30;;
81483;SDS011;70895;52.392;5.268;2023-06-22T02:57:32;50.95;;;25.15;;
81483;SDS011;70895;52.392;5.268;2023-06-22T02:59:59;61.95;;;28.13;;
81483;SDS011;70895;52.392;5.268;2023-06-22T03:02:26;50.47;;;27.63;;
81483;SDS011;70895;52.392;5.268;2023-06-22T03:04:53;52.20;;;27.05;;
81483;SDS011;70895;52.392;5.268;2023-06-22T03:07:19;62.90;;;28.30;;
81483;SDS011;70895;52.392;5.268;2023-06-22T03:09:46;56.63;;;26.88;;
81483;SDS011;70895;52.392;5.268;2023-06-22T03:12:14;63.63;;;29.80;;
81483;SDS011;70895;52.392;5.268;2023-06-22T03:14:41;58.63;;;29.52;;
81483;SDS011;70895;52.392;5.268;2023-06-22T03:17:08;51.70;;;26.80;;
81483;SDS011;70895;52.392;5.268;2023-06-22T03:19:36;57.03;;;29.02;;
81483;SDS011;70895;52.392;5.268;2023-06-22T03:22:03;52.95;;;26.92;;
81483;SDS011;70895;52.392;5.268;2023-06-22T03:24:30;49.20;;;25.65;;
81483;SDS011;70895;52.392;5.268;2023-06-22T03:29:31;48.63;;;24.65;;
81483;SDS011;70895;52.392;5.268;2023-06-22T03:31:58;51.17;;;25.40;;
81483;SDS011;70895;52.392;5.268;2023-06-22T03:34:24;52.92;;;25.65;;
81483;SDS011;70895;52.392;5.268;2023-06-22T03:36:51;54.55;;;26.98;;
81483;SDS011;70895;52.392;5.268;2023-06-22T03:39:18;54.80;;;28.23;;
81483;SDS011;70895;52.392;5.268;2023-06-22T03:41:45;52.10;;;25.10;;
81483;SDS011;70895;52.392;5.268;2023-06-22T03:44:12;53.63;;;28.30;;
81483;SDS011;70895;52.392;5.268;2023-06-22T03:46:40;47.33;;;24.60;;
81483;SDS011;70895;52.392;5.268;2023-06-22T03:49:07;46.92;;;25.70;;
81483;SDS011;70895;52.392;5.268;2023-06-22T03:51:34;51.55;;;25.67;;
81483;SDS011;70895;52.392;5.268;2023-06-22T03:54:01;48.33;;;26.02;;
81483;SDS011;70895;52.392;5.268;2023-06-22T03:56:27;56.55;;;28.25;;
81483;SDS011;70895;52.392;5.268;2023-06-22T03:58:54;57.08;;;27.55;;
81483;SDS011;70895;52.392;5.268;2023-06-22T04:01:21;50.05;;;25.52;;
81483;SDS011;70895;52.392;5.268;2023-06-22T04:03:49;49.47;;;26.52;;
81483;SDS011;70895;52.392;5.268;2023-06-22T04:06:16;43.65;;;22.70;;
81483;SDS011;70895;52.392;5.268;2023-06-22T04:08:44;47.47;;;23.77;;
81483;SDS011;70895;52.392;5.268;2023-06-22T04:11:13;56.33;;;27.10;;
81483;SDS011;70895;52.392;5.268;2023-06-22T04:13:40;55.85;;;27.65;;
81483;SDS011;70895;52.392;5.268;2023-06-22T04:16:07;53.95;;;28.15;;
81483;SDS011;70895;52.392;5.268;2023-06-22T04:18:34;48.90;;;24.88;;
81483;SDS011;70895;52.392;5.268;2023-06-22T04:21:02;46.15;;;24.15;;
81483;SDS011;70895;52.392;5.268;2023-06-22T04:23:29;44.38;;;23.08;;
81483;SDS011;70895;52.392;5.268;2023-06-22T04:25:56;56.53;;;26.52;;
81483;SDS011;70895;52.392;5.268;2023-06-22T04:28:23;55.15;;;25.55;;
81483;SDS011;70895;52.392;5.268;2023-06-22T04:30:50;42.55;;;22.92;;
81483;SDS011;70895;52.392;5.268;2023-06-22T04:33:17;47.75;;;26.67;;
81483;SDS011;70895;52.392;5.268;2023-06-22T04:35:44;53.55;;;26.02;;
81483;SDS011;70895;52.392;5.268;2023-06-22T04:38:13;55.33;;;27.33;;
81483;SDS011;70895;52.392;5.268;2023-06-22T04:40:40;49.83;;;27.52;;
81483;SDS011;70895;52.392;5.268;2023-06-22T04:43:07;49.03;;;24.67;;
81483;SDS011;70895;52.392;5.268;2023-06-22T04:45:35;55.63;;;29.77;;
81483;SDS011;70895;52.392;5.268;2023-06-22T04:48:03;50.53;;;27.40;;
81483;SDS011;70895;52.392;5.268;2023-06-22T04:50:30;50.35;;;28.40;;
81483;SDS011;70895;52.392;5.268;2023-06-22T04:53:02;57.55;;;29.77;;
81483;SDS011;70895;52.392;5.268;2023-06-22T04:55:32;64.20;;;33.33;;
81483;SDS011;70895;52.392;5.268;2023-06-22T04:57:58;61.15;;;33.88;;
81483;SDS011;70895;52.392;5.268;2023-06-22T05:00:30;62.75;;;31.60;;
81483;SDS011;70895;52.392;5.268;2023-06-22T05:02:57;57.22;;;29.80;;
81483;SDS011;70895;52.392;5.268;2023-06-22T05:05:24;59.50;;;32.95;;
81483;SDS011;70895;52.392;5.268;2023-06-22T05:07:51;59.80;;;31.35;;
81483;SDS011;70895;52.392;5.268;2023-06-22T05:10:20;64.43;;;31.33;;
81483;SDS011;70895;52.392;5.268;2023-06-22T05:12:48;53.65;;;29.38;;
81483;SDS011;70895;52.392;5.268;2023-06-22T05:15:15;62.20;;;31.30;;
81483;SDS011;70895;52.392;5.268;2023-06-22T05:17:44;62.50;;;31.40;;
81483;SDS011;70895;52.392;5.268;2023-06-22T05:20:12;51.45;;;29.17;;
81483;SDS011;70895;52.392;5.268;2023-06-22T05:22:39;51.55;;;27.83;;
81483;SDS011;70895;52.392;5.268;2023-06-22T05:25:08;48.55;;;27.27;;
81483;SDS011;70895;52.392;5.268;2023-06-22T05:27:36;58.65;;;31.95;;
81483;SDS011;70895;52.392;5.268;2023-06-22T05:30:08;56.50;;;31.42;;
81483;SDS011;70895;52.392;5.268;2023-06-22T05:32:36;58.08;;;31.58;;
81483;SDS011;70895;52.392;5.268;2023-06-22T05:35:03;55.45;;;31.40;;
81483;SDS011;70895;52.392;5.268;2023-06-22T05:37:31;55.17;;;31.05;;
81483;SDS011;70895;52.392;5.268;2023-06-22T05:39:58;61.38;;;32.70;;
81483;SDS011;70895;52.392;5.268;2023-06-22T05:42:24;54.30;;;29.10;;
81483;SDS011;70895;52.392;5.268;2023-06-22T05:44:51;54.10;;;30.17;;
81483;SDS011;70895;52.392;5.268;2023-06-22T05:47:20;55.60;;;29.65;;
81483;SDS011;70895;52.392;5.268;2023-06-22T05:49:48;53.85;;;29.05;;
81483;SDS011;70895;52.392;5.268;2023-06-22T05:52:14;50.67;;;28.45;;
81483;SDS011;70895;52.392;5.268;2023-06-22T05:54:41;49.92;;;28.95;;
81483;SDS011;70895;52.392;5.268;2023-06-22T05:57:08;58.63;;;31.77;;
81483;SDS011;70895;52.392;5.268;2023-06-22T05:59:34;49.97;;;28.77;;
81483;SDS011;70895;52.392;5.268;2023-06-22T06:02:01;48.78;;;29.73;;
81483;SDS011;70895;52.392;5.268;2023-06-22T06:04:30;47.33;;;29.45;;
81483;SDS011;70895;52.392;5.268;2023-06-22T06:06:56;49.70;;;29.25;;
81483;SDS011;70895;52.392;5.268;2023-06-22T06:09:23;57.10;;;29.83;;
81483;SDS011;70895;52.392;5.268;2023-06-22T06:11:50;54.83;;;30.15;;
81483;SDS011;70895;52.392;5.268;2023-06-22T06:14:19;48.42;;;29.10;;
81483;SDS011;70895;52.392;5.268;2023-06-22T06:16:46;48.33;;;30.13;;
81483;SDS011;70895;52.392;5.268;2023-06-22T06:19:13;40.08;;;26.10;;
81483;SDS011;70895;52.392;5.268;2023-06-22T06:21:41;48.78;;;28.63;;
81483;SDS011;70895;52.392;5.268;2023-06-22T06:24:08;47.95;;;27.75;;
81483;SDS011;70895;52.392;5.268;2023-06-22T06:26:35;43.42;;;28.17;;
81483;SDS011;70895;52.392;5.268;2023-06-22T06:29:05;43.67;;;25.50;;
81483;SDS011;70895;52.392;5.268;2023-06-22T06:31:32;42.22;;;26.92;;
81483;SDS011;70895;52.392;5.268;2023-06-22T06:33:58;43.90;;;25.45;;
81483;SDS011;70895;52.392;5.268;2023-06-22T06:36:25;38.65;;;24.83;;
81483;SDS011;70895;52.392;5.268;2023-06-22T06:38:53;36.42;;;23.05;;
81483;SDS011;70895;52.392;5.268;2023-06-22T06:41:20;37.25;;;23.88;;
81483;SDS011;70895;52.392;5.268;2023-06-22T06:43:47;36.17;;;23.88;;
81483;SDS011;70895;52.392;5.268;2023-06-22T06:46:13;35.70;;;23.52;;
81483;SDS011;70895;52.392;5.268;2023-06-22T06:48:43;37.78;;;24.02;;
81483;SDS011;70895;52.392;5.268;2023-06-22T06:51:09;35.95;;;24.00;;
81483;SDS011;70895;52.392;5.268;2023-06-22T06:53:37;33.65;;;23.58;;
81483;SDS011;70895;52.392;5.268;2023-06-22T06:56:06;36.88;;;23.48;;
81483;SDS011;70895;52.392;5.268;2023-06-22T06:58:35;31.80;;;22.80;;
81483;SDS011;70895;52.392;5.268;2023-06-22T07:01:02;30.77;;;23.02;;
81483;SDS011;70895;52.392;5.268;2023-06-22T07:03:28;37.65;;;24.08;;
81483;SDS011;70895;52.392;5.268;2023-06-22T07:05:55;39.00;;;24.77;;
81483;SDS011;70895;52.392;5.268;2023-06-22T07:08:22;30.52;;;21.80;;
81483;SDS011;70895;52.392;5.268;2023-06-22T07:10:49;31.90;;;22.02;;
81483;SDS011;70895;52.392;5.268;2023-06-22T07:13:17;30.33;;;20.90;;
81483;SDS011;70895;52.392;5.268;2023-06-22T07:15:44;28.42;;;19.63;;
81483;SDS011;70895;52.392;5.268;2023-06-22T07:18:10;27.17;;;19.35;;
81483;SDS011;70895;52.392;5.268;2023-06-22T07:20:37;29.55;;;19.42;;
81483;SDS011;70895;52.392;5.268;2023-06-22T07:25:32;27.08;;;18.50;;
81483;SDS011;70895;52.392;5.268;2023-06-22T07:28:00;27.98;;;18.90;;
81483;SDS011;70895;52.392;5.268;2023-06-22T07:30:29;25.75;;;19.38;;
81483;SDS011;70895;52.392;5.268;2023-06-22T07:32:56;27.83;;;20.15;;
81483;SDS011;70895;52.392;5.268;2023-06-22T07:35:28;24.83;;;18.52;;
81483;SDS011;70895;52.392;5.268;2023-06-22T07:37:55;25.75;;;18.48;;
81483;SDS011;70895;52.392;5.268;2023-06-22T07:40:22;27.15;;;19.08;;
81483;SDS011;70895;52.392;5.268;2023-06-22T07:42:48;25.52;;;17.75;;
81483;SDS011;70895;52.392;5.268;2023-06-22T07:45:16;22.05;;;16.23;;
81483;SDS011;70895;52.392;5.268;2023-06-22T07:47:45;25.75;;;18.25;;
81483;SDS011;70895;52.392;5.268;2023-06-22T07:52:38;21.80;;;15.60;;
81483;SDS011;70895;52.392;5.268;2023-06-22T07:55:05;20.45;;;15.70;;
81483;SDS011;70895;52.392;5.268;2023-06-22T07:57:32;17.20;;;12.82;;
81483;SDS011;70895;52.392;5.268;2023-06-22T07:59:59;19.55;;;13.82;;
81483;SDS011;70895;52.392;5.268;2023-06-22T08:02:29;18.75;;;14.30;;
81483;SDS011;70895;52.392;5.268;2023-06-22T08:04:57;19.48;;;12.55;;
81483;SDS011;70895;52.392;5.268;2023-06-22T08:07:23;17.60;;;11.65;;
81483;SDS011;70895;52.392;5.268;2023-06-22T08:09:50;19.10;;;14.35;;
81483;SDS011;70895;52.392;5.268;2023-06-22T08:12:17;17.88;;;13.60;;
81483;SDS011;70895;52.392;5.268;2023-06-22T08:14:43;18.65;;;13.23;;
81483;SDS011;70895;52.392;5.268;2023-06-22T08:17:11;21.30;;;13.85;;
81483;SDS011;70895;52.392;5.268;2023-06-22T08:19:41;20.10;;;14.20;;
81483;SDS011;70895;52.392;5.268;2023-06-22T08:22:09;17.13;;;13.65;;
81483;SDS011;70895;52.392;5.268;2023-06-22T08:24:36;21.73;;;13.77;;
81483;SDS011;70895;52.392;5.268;2023-06-22T08:27:03;17.98;;;13.40;;
81483;SDS011;70895;52.392;5.268;2023-06-22T08:29:33;18.10;;;13.73;;
81483;SDS011;70895;52.392;5.268;2023-06-22T08:32:00;18.20;;;14.05;;
81483;SDS011;70895;52.392;5.268;2023-06-22T08:34:26;19.58;;;13.10;;
81483;SDS011;70895;52.392;5.268;2023-06-22T08:36:53;17.92;;;12.38;;
81483;SDS011;70895;52.392;5.268;2023-06-22T08:39:21;18.60;;;13.00;;
81483;SDS011;70895;52.392;5.268;2023-06-22T08:44:16;17.58;;;12.52;;
81483;SDS011;70895;52.392;5.268;2023-06-22T08:46:44;16.27;;;11.85;;
81483;SDS011;70895;52.392;5.268;2023-06-22T08:49:11;14.80;;;11.70;;
81483;SDS011;70895;52.392;5.268;2023-06-22T08:51:38;16.52;;;12.85;;
81483;SDS011;70895;52.392;5.268;2023-06-22T08:54:05;19.90;;;12.68;;
81483;SDS011;70895;52.392;5.268;2023-06-22T08:56:33;15.57;;;11.60;;
81483;SDS011;70895;52.392;5.268;2023-06-22T08:58:59;18.05;;;12.13;;
81483;SDS011;70895;52.392;5.268;2023-06-22T09:01:26;16.55;;;12.40;;
81483;SDS011;70895;52.392;5.268;2023-06-22T09:03:53;17.02;;;11.90;;
81483;SDS011;70895;52.392;5.268;2023-06-22T09:06:22;16.02;;;11.90;;
81483;SDS011;70895;52.392;5.268;2023-06-22T09:08:49;16.63;;;11.82;;
81483;SDS011;70895;52.392;5.268;2023-06-22T09:11:15;15.77;;;11.95;;
81483;SDS011;70895;52.392;5.268;2023-06-22T09:13:43;15.90;;;12.10;;
81483;SDS011;70895;52.392;5.268;2023-06-22T09:16:11;14.43;;;10.55;;
81483;SDS011;70895;52.392;5.268;2023-06-22T09:18:37;14.68;;;10.85;;
81483;SDS011;70895;52.392;5.268;2023-06-22T09:21:04;14.35;;;11.00;;
81483;SDS011;70895;52.392;5.268;2023-06-22T09:23:30;16.33;;;11.25;;
81483;SDS011;70895;52.392;5.268;2023-06-22T09:25:57;14.82;;;10.80;;
81483;SDS011;70895;52.392;5.268;2023-06-22T09:28:23;13.55;;;10.93;;
81483;SDS011;70895;52.392;5.268;2023-06-22T09:30:52;13.52;;;10.40;;
81483;SDS011;70895;52.392;5.268;2023-06-22T09:33:24;16.92;;;11.02;;
81483;SDS011;70895;52.392;5.268;2023-06-22T09:35:51;16.45;;;12.50;;
81483;SDS011;70895;52.392;5.268;2023-06-22T09:38:17;15.55;;;10.70;;
81483;SDS011;70895;52.392;5.268;2023-06-22T09:40:46;16.45;;;10.88;;
81483;SDS011;70895;52.392;5.268;2023-06-22T09:43:13;15.52;;;10.13;;
81483;SDS011;70895;52.392;5.268;2023-06-22T09:45:39;12.30;;;9.05;;
81483;SDS011;70895;52.392;5.268;2023-06-22T09:48:07;17.23;;;10.85;;
81483;SDS011;70895;52.392;5.268;2023-06-22T09:50:35;14.98;;;9.20;;
81483;SDS011;70895;52.392;5.268;2023-06-22T09:53:01;15.48;;;10.02;;
81483;SDS011;70895;52.392;5.268;2023-06-22T09:55:28;12.52;;;10.13;;
81483;SDS011;70895;52.392;5.268;2023-06-22T09:57:54;13.45;;;9.63;;
81483;SDS011;70895;52.392;5.268;2023-06-22T10:00:21;15.45;;;10.20;;
81483;SDS011;70895;52.392;5.268;2023-06-22T10:02:48;14.02;;;9.23;;
81483;SDS011;70895;52.392;5.268;2023-06-22T10:05:17;18.30;;;11.30;;
81483;SDS011;70895;52.392;5.268;2023-06-22T10:07:43;16.02;;;10.45;;
81483;SDS011;70895;52.392;5.268;2023-06-22T10:10:10;20.02;;;12.70;;
81483;SDS011;70895;52.392;5.268;2023-06-22T10:12:40;17.13;;;11.13;;
81483;SDS011;70895;52.392;5.268;2023-06-22T10:15:08;20.70;;;12.80;;
81483;SDS011;70895;52.392;5.268;2023-06-22T10:17:35;16.67;;;13.10;;
81483;SDS011;70895;52.392;5.268;2023-06-22T10:20:02;18.02;;;12.52;;
81483;SDS011;70895;52.392;5.268;2023-06-22T10:22:37;18.58;;;13.52;;
81483;SDS011;70895;52.392;5.268;2023-06-22T10:25:05;19.52;;;14.98;;
81483;SDS011;70895;52.392;5.268;2023-06-22T10:27:32;25.58;;;14.13;;
81483;SDS011;70895;52.392;5.268;2023-06-22T10:29:59;19.30;;;13.63;;
81483;SDS011;70895;52.392;5.268;2023-06-22T10:32:26;19.63;;;13.38;;
81483;SDS011;70895;52.392;5.268;2023-06-22T10:34:53;24.60;;;12.75;;
81483;SDS011;70895;52.392;5.268;2023-06-22T10:37:20;19.77;;;12.93;;
81483;SDS011;70895;52.392;5.268;2023-06-22T10:39:48;20.60;;;14.95;;
81483;SDS011;70895;52.392;5.268;2023-06-22T10:42:15;22.40;;;14.05;;
81483;SDS011;70895;52.392;5.268;2023-06-22T10:44:42;17.05;;;12.88;;
81483;SDS011;70895;52.392;5.268;2023-06-22T10:47:09;19.70;;;13.93;;
81483;SDS011;70895;52.392;5.268;2023-06-22T10:49:37;21.98;;;14.23;;
81483;SDS011;70895;52.392;5.268;2023-06-22T10:52:04;20.40;;;14.90;;
81483;SDS011;70895;52.392;5.268;2023-06-22T10:54:32;17.38;;;13.02;;
81483;SDS011;70895;52.392;5.268;2023-06-22T10:57:00;23.35;;;14.32;;
81483;SDS011;70895;52.392;5.268;2023-06-22T10:59:27;19.92;;;12.85;;
81483;SDS011;70895;52.392;5.268;2023-06-22T11:01:54;19.08;;;14.48;;
81483;SDS011;70895;52.392;5.268;2023-06-22T11:04:21;20.88;;;14.88;;
81483;SDS011;70895;52.392;5.268;2023-06-22T11:06:48;24.35;;;14.60;;
81483;SDS011;70895;52.392;5.268;2023-06-22T11:09:15;20.52;;;14.77;;
81483;SDS011;70895;52.392;5.268;2023-06-22T11:11:45;20.05;;;14.07;;
81483;SDS011;70895;52.392;5.268;2023-06-22T11:14:13;18.75;;;14.23;;
81483;SDS011;70895;52.392;5.268;2023-06-22T11:16:40;22.65;;;16.65;;
81483;SDS011;70895;52.392;5.268;2023-06-22T11:19:07;21.50;;;14.90;;
81483;SDS011;70895;52.392;5.268;2023-06-22T11:21:33;19.85;;;14.20;;
81483;SDS011;70895;52.392;5.268;2023-06-22T11:24:00;21.38;;;14.60;;
81483;SDS011;70895;52.392;5.268;2023-06-22T11:26:27;26.63;;;15.68;;
81483;SDS011;70895;52.392;5.268;2023-06-22T11:28:54;18.67;;;14.68;;
81483;SDS011;70895;52.392;5.268;2023-06-22T11:31:22;22.77;;;17.00;;
81483;SDS011;70895;52.392;5.268;2023-06-22T11:33:49;20.60;;;14.60;;
81483;SDS011;70895;52.392;5.268;2023-06-22T11:36:15;22.63;;;16.75;;
81483;SDS011;70895;52.392;5.268;2023-06-22T11:38:42;20.77;;;15.35;;
81483;SDS011;70895;52.392;5.268;2023-06-22T11:41:10;21.88;;;15.82;;
81483;SDS011;70895;52.392;5.268;2023-06-22T11:43:36;20.73;;;15.98;;
81483;SDS011;70895;52.392;5.268;2023-06-22T11:46:03;19.52;;;14.45;;
81483;SDS011;70895;52.392;5.268;2023-06-22T11:48:32;21.00;;;14.90;;
81483;SDS011;70895;52.392;5.268;2023-06-22T11:50:58;25.48;;;16.25;;
81483;SDS011;70895;52.392;5.268;2023-06-22T11:53:26;22.52;;;15.25;;
81483;SDS011;70895;52.392;5.268;2023-06-22T11:55:52;20.02;;;13.38;;
81483;SDS011;70895;52.392;5.268;2023-06-22T11:58:20;22.02;;;13.20;;
81483;SDS011;70895;52.392;5.268;2023-06-22T12:00:47;12.10;;;8.20;;
81483;SDS011;70895;52.392;5.268;2023-06-22T12:03:14;13.95;;;8.48;;
81483;SDS011;70895;52.392;5.268;2023-06-22T12:05:43;11.32;;;6.90;;
81483;SDS011;70895;52.392;5.268;2023-06-22T12:08:09;8.57;;;5.55;;
81483;SDS011;70895;52.392;5.268;2023-06-22T12:10:37;7.75;;;5.22;;
81483;SDS011;70895;52.392;5.268;2023-06-22T12:13:03;9.52;;;6.20;;
81483;SDS011;70895;52.392;5.268;2023-06-22T12:15:30;9.52;;;5.60;;
81483;SDS011;70895;52.392;5.268;2023-06-22T12:17:56;10.93;;;5.40;;
81483;SDS011;70895;52.392;5.268;2023-06-22T12:20:23;7.22;;;4.80;;
81483;SDS011;70895;52.392;5.268;2023-06-22T12:22:51;5.18;;;4.03;;
81483;SDS011;70895;52.392;5.268;2023-06-22T12:25:19;8.15;;;5.15;;
81483;SDS011;70895;52.392;5.268;2023-06-22T12:27:45;8.65;;;5.32;;
81483;SDS011;70895;52.392;5.268;2023-06-22T12:30:12;8.70;;;5.40;;
81483;SDS011;70895;52.392;5.268;2023-06-22T12:32:39;8.23;;;4.82;;
81483;SDS011;70895;52.392;5.268;2023-06-22T12:35:06;6.72;;;4.38;;
81483;SDS011;70895;52.392;5.268;2023-06-22T12:37:38;9.43;;;5.72;;
81483;SDS011;70895;52.392;5.268;2023-06-22T12:40:07;7.85;;;5.43;;
81483;SDS011;70895;52.392;5.268;2023-06-22T12:42:34;10.88;;;6.20;;
81483;SDS011;70895;52.392;5.268;2023-06-22T12:45:01;9.30;;;5.70;;
81483;SDS011;70895;52.392;5.268;2023-06-22T12:47:28;9.10;;;6.10;;
81483;SDS011;70895;52.392;5.268;2023-06-22T12:49:57;8.18;;;6.63;;
81483;SDS011;70895;52.392;5.268;2023-06-22T12:52:24;8.50;;;6.22;;
81483;SDS011;70895;52.392;5.268;2023-06-22T12:54:50;11.05;;;7.03;;
81483;SDS011;70895;52.392;5.268;2023-06-22T12:57:18;10.27;;;7.22;;
81483;SDS011;70895;52.392;5.268;2023-06-22T12:59:45;12.85;;;7.85;;
81483;SDS011;70895;52.392;5.268;2023-06-22T13:02:12;12.18;;;7.57;;
81483;SDS011;70895;52.392;5.268;2023-06-22T13:04:38;11.88;;;7.15;;
81483;SDS011;70895;52.392;5.268;2023-06-22T13:07:05;10.43;;;6.82;;
81483;SDS011;70895;52.392;5.268;2023-06-22T13:09:32;11.18;;;7.00;;
81483;SDS011;70895;52.392;5.268;2023-06-22T13:12:00;11.02;;;7.50;;
81483;SDS011;70895;52.392;5.268;2023-06-22T13:14:28;13.90;;;8.13;;
81483;SDS011;70895;52.392;5.268;2023-06-22T13:16:54;12.35;;;8.48;;
81483;SDS011;70895;52.392;5.268;2023-06-22T13:19:21;15.57;;;9.13;;
81483;SDS011;70895;52.392;5.268;2023-06-22T13:21:48;13.13;;;8.98;;
81483;SDS011;70895;52.392;5.268;2023-06-22T13:24:15;14.52;;;9.20;;
81483;SDS011;70895;52.392;5.268;2023-06-22T13:26:42;11.63;;;8.85;;
81483;SDS011;70895;52.392;5.268;2023-06-22T13:29:09;12.63;;;8.68;;
81483;SDS011;70895;52.392;5.268;2023-06-22T13:31:37;11.40;;;8.80;;
81483;SDS011;70895;52.392;5.268;2023-06-22T13:34:04;11.57;;;8.25;;
81483;SDS011;70895;52.392;5.268;2023-06-22T13:36:31;12.00;;;9.27;;
81483;SDS011;70895;52.392;5.268;2023-06-22T13:38:58;12.60;;;9.25;;
81483;SDS011;70895;52.392;5.268;2023-06-22T13:41:24;13.13;;;8.77;;
81483;SDS011;70895;52.392;5.268;2023-06-22T13:43:51;14.57;;;8.95;;
81483;SDS011;70895;52.392;5.268;2023-06-22T13:46:18;12.43;;;8.80;;
81483;SDS011;70895;52.392;5.268;2023-06-22T13:48:46;14.70;;;8.45;;
81483;SDS011;70895;52.392;5.268;2023-06-22T13:51:13;11.65;;;9.25;;
81483;SDS011;70895;52.392;5.268;2023-06-22T13:53:40;12.43;;;8.15;;
81483;SDS011;70895;52.392;5.268;2023-06-22T13:56:06;10.82;;;8.70;;
81483;SDS011;70895;52.392;5.268;2023-06-22T13:58:33;9.50;;;7.88;;
81483;SDS011;70895;52.392;5.268;2023-06-22T14:00:59;11.43;;;7.80;;
81483;SDS011;70895;52.392;5.268;2023-06-22T14:03:26;14.52;;;8.77;;
81483;SDS011;70895;52.392;5.268;2023-06-22T14:05:54;11.50;;;7.63;;
81483;SDS011;70895;52.392;5.268;2023-06-22T14:08:23;12.85;;;8.95;;
81483;SDS011;70895;52.392;5.268;2023-06-22T14:10:50;10.80;;;7.45;;
81483;SDS011;70895;52.392;5.268;2023-06-22T14:15:45;10.88;;;7.78;;
81483;SDS011;70895;52.392;5.268;2023-06-22T14:18:13;11.82;;;8.75;;
81483;SDS011;70895;52.392;5.268;2023-06-22T14:20:40;12.48;;;9.60;;
81483;SDS011;70895;52.392;5.268;2023-06-22T14:23:08;13.13;;;9.90;;
81483;SDS011;70895;52.392;5.268;2023-06-22T14:25:35;12.15;;;9.38;;
81483;SDS011;70895;52.392;5.268;2023-06-22T14:28:01;13.13;;;9.80;;
81483;SDS011;70895;52.392;5.268;2023-06-22T14:30:28;14.88;;;9.85;;
81483;SDS011;70895;52.392;5.268;2023-06-22T14:32:55;21.75;;;10.75;;
81483;SDS011;70895;52.392;5.268;2023-06-22T14:35:22;17.38;;;11.30;;
81483;SDS011;70895;52.392;5.268;2023-06-22T14:37:49;15.20;;;10.57;;
81483;SDS011;70895;52.392;5.268;2023-06-22T14:40:17;14.20;;;10.45;;
81483;SDS011;70895;52.392;5.268;2023-06-22T14:42:44;17.02;;;11.48;;